sensor_id;sensor_type;location;lat;lon;timestamp;temperature;humidity
35373;DHT22;21476;51.652;7.852;2022-08-16T00:00:41;20.00;99.90
35373;DHT22;21476;51.652;7.852;2022-08-16T00:03:09;19.90;99.90
35373;DHT22;21476;51.652;7.852;2022-08-16T00:05:35;19.80;99.90
35373;DHT22;21476;51.652;7.852;2022-08-16T00:08:02;19.70;99.90
35373;DHT22;21476;51.652;7.852;2022-08-16T00:10:29;19.70;99.90
35373;DHT22;21476;51.652;7.852;2022-08-16T00:12:58;19.70;99.90
35373;DHT22;21476;51.652;7.852;2022-08-16T00:16:03;19.70;99.90
35373;DHT22;21476;51.652;7.852;2022-08-16T00:18:22;19.70;99.90
35373;DHT22;21476;51.652;7.852;2022-08-16T00:20:48;19.70;99.90
35373;DHT22;21476;51.652;7.852;2022-08-16T00:23:14;19.70;99.90
35373;DHT22;21476;51.652;7.852;2022-08-16T00:25:40;19.70;99.90
35373;DHT22;21476;51.652;7.852;2022-08-16T00:28:06;19.50;99.90
35373;DHT22;21476;51.652;7.852;2022-08-16T00:30:32;19.40;99.90
35373;DHT22;21476;51.652;7.852;2022-08-16T00:32:59;19.30;99.90
35373;DHT22;21476;51.652;7.852;2022-08-16T00:35:32;19.30;99.90
35373;DHT22;21476;51.652;7.852;2022-08-16T00:37:59;19.30;99.90
35373;DHT22;21476;51.652;7.852;2022-08-16T00:40:44;19.30;99.90
35373;DHT22;21476;51.652;7.852;2022-08-16T00:43:16;19.30;99.90
35373;DHT22;21476;51.652;7.852;2022-08-16T00:48:31;19.30;99.90
35373;DHT22;21476;51.652;7.852;2022-08-16T00:51:02;19.20;99.90
35373;DHT22;21476;51.652;7.852;2022-08-16T00:53:28;19.30;99.90
35373;DHT22;21476;51.652;7.852;2022-08-16T00:55:56;19.30;99.90
35373;DHT22;21476;51.652;7.852;2022-08-16T00:58:25;19.30;99.90
35373;DHT22;21476;51.652;7.852;2022-08-16T01:00:52;19.40;99.90
35373;DHT22;21476;51.652;7.852;2022-08-16T01:03:19;19.30;99.90
35373;DHT22;21476;51.652;7.852;2022-08-16T01:05:45;19.30;99.90
35373;DHT22;21476;51.652;7.852;2022-08-16T01:08:13;19.40;99.90
35373;DHT22;21476;51.652;7.852;2022-08-16T01:10:39;19.40;99.90
35373;DHT22;21476;51.652;7.852;2022-08-16T01:13:09;19.40;99.90
35373;DHT22;21476;51.652;7.852;2022-08-16T01:15:38;19.40;99.90
35373;DHT22;21476;51.652;7.852;2022-08-16T01:18:05;19.40;99.90
35373;DHT22;21476;51.652;7.852;2022-08-16T01:20:41;19.40;99.90
35373;DHT22;21476;51.652;7.852;2022-08-16T01:23:35;19.40;99.90
35373;DHT22;21476;51.652;7.852;2022-08-16T01:26:03;19.40;99.90
35373;DHT22;21476;51.652;7.852;2022-08-16T01:28:30;19.40;99.90
35373;DHT22;21476;51.652;7.852;2022-08-16T01:30:56;19.30;99.90
35373;DHT22;21476;51.652;7.852;2022-08-16T01:33:23;19.30;99.90
35373;DHT22;21476;51.652;7.852;2022-08-16T01:35:59;19.30;99.90
35373;DHT22;21476;51.652;7.852;2022-08-16T01:38:28;19.30;99.90
35373;DHT22;21476;51.652;7.852;2022-08-16T01:41:05;19.30;99.90
35373;DHT22;21476;51.652;7.852;2022-08-16T01:43:32;19.30;99.90
35373;DHT22;21476;51.652;7.852;2022-08-16T01:46:03;19.30;99.90
35373;DHT22;21476;51.652;7.852;2022-08-16T01:48:30;19.30;99.90
35373;DHT22;21476;51.652;7.852;2022-08-16T01:50:58;19.20;99.90
35373;DHT22;21476;51.652;7.852;2022-08-16T01:53:25;19.20;99.90
35373;DHT22;21476;51.652;7.852;2022-08-16T01:55:51;19.10;99.90
35373;DHT22;21476;51.652;7.852;2022-08-16T01:58:18;19.10;99.90
35373;DHT22;21476;51.652;7.852;2022-08-16T02:00:44;19.00;99.90
35373;DHT22;21476;51.652;7.852;2022-08-16T02:03:10;19.00;99.90
35373;DHT22;21476;51.652;7.852;2022-08-16T02:05:36;19.00;99.90
35373;DHT22;21476;51.652;7.852;2022-08-16T02:08:04;18.80;99.90
35373;DHT22;21476;51.652;7.852;2022-08-16T02:10:30;18.70;99.90
35373;DHT22;21476;51.652;7.852;2022-08-16T02:12:56;18.60;99.90
35373;DHT22;21476;51.652;7.852;2022-08-16T02:15:25;18.50;99.90
35373;DHT22;21476;51.652;7.852;2022-08-16T02:17:53;18.50;99.90
35373;DHT22;21476;51.652;7.852;2022-08-16T02:20:18;18.50;99.90
35373;DHT22;21476;51.652;7.852;2022-08-16T02:22:44;18.50;99.90
35373;DHT22;21476;51.652;7.852;2022-08-16T02:25:13;18.40;99.90
35373;DHT22;21476;51.652;7.852;2022-08-16T02:27:41;18.40;99.90
35373;DHT22;21476;51.652;7.852;2022-08-16T02:30:12;18.30;99.90
35373;DHT22;21476;51.652;7.852;2022-08-16T02:32:40;18.20;99.90
35373;DHT22;21476;51.652;7.852;2022-08-16T02:35:06;18.10;99.90
35373;DHT22;21476;51.652;7.852;2022-08-16T02:37:32;18.00;99.90
35373;DHT22;21476;51.652;7.852;2022-08-16T02:39:57;18.00;99.90
35373;DHT22;21476;51.652;7.852;2022-08-16T02:42:23;17.90;99.90
35373;DHT22;21476;51.652;7.852;2022-08-16T02:44:49;17.90;99.90
35373;DHT22;21476;51.652;7.852;2022-08-16T02:47:15;17.90;99.90
35373;DHT22;21476;51.652;7.852;2022-08-16T02:49:41;17.80;99.90
35373;DHT22;21476;51.652;7.852;2022-08-16T02:52:08;17.70;99.90
35373;DHT22;21476;51.652;7.852;2022-08-16T02:54:35;17.70;99.90
35373;DHT22;21476;51.652;7.852;2022-08-16T02:57:00;17.60;99.90
35373;DHT22;21476;51.652;7.852;2022-08-16T02:59:26;17.60;99.90
35373;DHT22;21476;51.652;7.852;2022-08-16T03:01:52;17.60;99.90
35373;DHT22;21476;51.652;7.852;2022-08-16T03:04:17;17.50;99.90
35373;DHT22;21476;51.652;7.852;2022-08-16T03:06:43;17.50;99.90
35373;DHT22;21476;51.652;7.852;2022-08-16T03:09:10;17.50;99.90
35373;DHT22;21476;51.652;7.852;2022-08-16T03:11:36;17.50;99.90
35373;DHT22;21476;51.652;7.852;2022-08-16T03:14:01;17.40;99.90
35373;DHT22;21476;51.652;7.852;2022-08-16T03:16:28;17.40;99.90
35373;DHT22;21476;51.652;7.852;2022-08-16T03:18:54;17.40;99.90
35373;DHT22;21476;51.652;7.852;2022-08-16T03:21:20;17.30;99.90
35373;DHT22;21476;51.652;7.852;2022-08-16T03:23:46;17.30;99.90
35373;DHT22;21476;51.652;7.852;2022-08-16T03:26:12;17.30;99.90
35373;DHT22;21476;51.652;7.852;2022-08-16T03:28:38;17.30;99.90
35373;DHT22;21476;51.652;7.852;2022-08-16T03:31:04;17.20;99.90
35373;DHT22;21476;51.652;7.852;2022-08-16T03:33:32;17.30;99.90
35373;DHT22;21476;51.652;7.852;2022-08-16T03:35:57;17.20;99.90
35373;DHT22;21476;51.652;7.852;2022-08-16T03:38:25;17.20;99.90
35373;DHT22;21476;51.652;7.852;2022-08-16T03:40:52;17.20;99.90
35373;DHT22;21476;51.652;7.852;2022-08-16T03:43:18;17.20;99.90
35373;DHT22;21476;51.652;7.852;2022-08-16T03:45:44;17.20;99.90
35373;DHT22;21476;51.652;7.852;2022-08-16T03:48:10;17.10;99.90
35373;DHT22;21476;51.652;7.852;2022-08-16T03:50:36;17.10;99.90
35373;DHT22;21476;51.652;7.852;2022-08-16T03:53:03;17.10;99.90
35373;DHT22;21476;51.652;7.852;2022-08-16T03:55:29;17.10;99.90
35373;DHT22;21476;51.652;7.852;2022-08-16T03:57:55;17.10;99.90
35373;DHT22;21476;51.652;7.852;2022-08-16T04:00:23;17.00;99.90
35373;DHT22;21476;51.652;7.852;2022-08-16T04:02:50;17.00;99.90
35373;DHT22;21476;51.652;7.852;2022-08-16T04:05:16;16.90;99.90
35373;DHT22;21476;51.652;7.852;2022-08-16T04:07:42;16.90;99.90
35373;DHT22;21476;51.652;7.852;2022-08-16T04:10:10;16.90;99.90
35373;DHT22;21476;51.652;7.852;2022-08-16T04:12:37;16.90;99.90
35373;DHT22;21476;51.652;7.852;2022-08-16T04:15:04;16.90;99.90
35373;DHT22;21476;51.652;7.852;2022-08-16T04:17:31;17.00;99.90
35373;DHT22;21476;51.652;7.852;2022-08-16T04:19:57;17.00;99.90
35373;DHT22;21476;51.652;7.852;2022-08-16T04:22:23;17.00;99.90
35373;DHT22;21476;51.652;7.852;2022-08-16T04:24:48;17.10;99.90
35373;DHT22;21476;51.652;7.852;2022-08-16T04:27:14;17.10;99.90
35373;DHT22;21476;51.652;7.852;2022-08-16T04:29:40;17.10;99.90
35373;DHT22;21476;51.652;7.852;2022-08-16T04:32:06;17.10;99.90
35373;DHT22;21476;51.652;7.852;2022-08-16T04:34:35;17.20;99.90
35373;DHT22;21476;51.652;7.852;2022-08-16T04:37:02;17.30;99.90
35373;DHT22;21476;51.652;7.852;2022-08-16T04:39:30;17.40;99.90
35373;DHT22;21476;51.652;7.852;2022-08-16T04:41:56;17.50;99.90
35373;DHT22;21476;51.652;7.852;2022-08-16T04:44:21;17.60;99.90
35373;DHT22;21476;51.652;7.852;2022-08-16T04:46:47;17.70;99.90
35373;DHT22;21476;51.652;7.852;2022-08-16T04:49:13;17.80;99.90
35373;DHT22;21476;51.652;7.852;2022-08-16T04:51:40;17.90;99.90
35373;DHT22;21476;51.652;7.852;2022-08-16T04:54:06;18.00;99.90
35373;DHT22;21476;51.652;7.852;2022-08-16T04:56:33;18.10;99.90
35373;DHT22;21476;51.652;7.852;2022-08-16T04:58:58;18.20;99.90
35373;DHT22;21476;51.652;7.852;2022-08-16T05:01:24;18.30;99.90
35373;DHT22;21476;51.652;7.852;2022-08-16T05:03:50;18.40;99.90
35373;DHT22;21476;51.652;7.852;2022-08-16T05:06:15;18.50;99.90
35373;DHT22;21476;51.652;7.852;2022-08-16T05:08:41;18.50;99.90
35373;DHT22;21476;51.652;7.852;2022-08-16T05:11:08;18.50;99.90
35373;DHT22;21476;51.652;7.852;2022-08-16T05:13:36;18.40;99.90
35373;DHT22;21476;51.652;7.852;2022-08-16T05:16:03;18.50;99.90
35373;DHT22;21476;51.652;7.852;2022-08-16T05:18:29;18.60;99.90
35373;DHT22;21476;51.652;7.852;2022-08-16T05:20:55;18.60;99.90
35373;DHT22;21476;51.652;7.852;2022-08-16T05:23:21;18.80;99.90
35373;DHT22;21476;51.652;7.852;2022-08-16T05:25:47;18.90;99.90
35373;DHT22;21476;51.652;7.852;2022-08-16T05:28:13;19.00;99.90
35373;DHT22;21476;51.652;7.852;2022-08-16T05:30:39;19.20;99.90
35373;DHT22;21476;51.652;7.852;2022-08-16T05:33:05;19.20;99.90
35373;DHT22;21476;51.652;7.852;2022-08-16T05:35:31;19.30;99.90
35373;DHT22;21476;51.652;7.852;2022-08-16T05:37:56;19.30;99.90
35373;DHT22;21476;51.652;7.852;2022-08-16T05:40:22;19.40;99.90
35373;DHT22;21476;51.652;7.852;2022-08-16T05:42:48;19.30;99.90
35373;DHT22;21476;51.652;7.852;2022-08-16T05:45:14;19.60;99.90
35373;DHT22;21476;51.652;7.852;2022-08-16T05:47:39;20.00;99.90
35373;DHT22;21476;51.652;7.852;2022-08-16T05:50:06;20.40;99.90
35373;DHT22;21476;51.652;7.852;2022-08-16T05:52:33;20.90;99.90
35373;DHT22;21476;51.652;7.852;2022-08-16T05:54:58;21.40;99.90
35373;DHT22;21476;51.652;7.852;2022-08-16T05:57:24;21.80;99.90
35373;DHT22;21476;51.652;7.852;2022-08-16T05:59:50;22.20;99.90
35373;DHT22;21476;51.652;7.852;2022-08-16T06:02:17;22.50;99.90
35373;DHT22;21476;51.652;7.852;2022-08-16T06:04:43;22.90;99.90
35373;DHT22;21476;51.652;7.852;2022-08-16T06:07:09;23.40;99.90
35373;DHT22;21476;51.652;7.852;2022-08-16T06:09:35;23.70;99.90
35373;DHT22;21476;51.652;7.852;2022-08-16T06:12:01;24.00;99.90
35373;DHT22;21476;51.652;7.852;2022-08-16T06:14:28;24.20;99.90
35373;DHT22;21476;51.652;7.852;2022-08-16T06:16:54;24.40;99.90
35373;DHT22;21476;51.652;7.852;2022-08-16T06:19:19;24.60;99.90
35373;DHT22;21476;51.652;7.852;2022-08-16T06:21:46;24.80;99.90
35373;DHT22;21476;51.652;7.852;2022-08-16T06:24:12;24.90;99.90
35373;DHT22;21476;51.652;7.852;2022-08-16T06:26:39;25.20;99.90
35373;DHT22;21476;51.652;7.852;2022-08-16T06:29:04;25.00;99.90
35373;DHT22;21476;51.652;7.852;2022-08-16T06:31:30;24.60;99.90
35373;DHT22;21476;51.652;7.852;2022-08-16T06:33:56;24.20;99.90
35373;DHT22;21476;51.652;7.852;2022-08-16T06:36:22;24.00;99.90
35373;DHT22;21476;51.652;7.852;2022-08-16T06:38:49;24.10;99.90
35373;DHT22;21476;51.652;7.852;2022-08-16T06:41:16;24.40;99.90
35373;DHT22;21476;51.652;7.852;2022-08-16T06:43:42;24.60;99.90
35373;DHT22;21476;51.652;7.852;2022-08-16T06:46:20;24.80;99.90
35373;DHT22;21476;51.652;7.852;2022-08-16T06:48:46;25.30;99.90
35373;DHT22;21476;51.652;7.852;2022-08-16T06:51:12;25.40;99.90
35373;DHT22;21476;51.652;7.852;2022-08-16T06:53:37;25.70;99.90
35373;DHT22;21476;51.652;7.852;2022-08-16T06:56:06;26.00;99.90
35373;DHT22;21476;51.652;7.852;2022-08-16T06:58:33;26.10;99.90
35373;DHT22;21476;51.652;7.852;2022-08-16T07:01:00;26.00;99.90
35373;DHT22;21476;51.652;7.852;2022-08-16T07:03:27;26.40;99.90
35373;DHT22;21476;51.652;7.852;2022-08-16T07:05:54;26.50;99.90
35373;DHT22;21476;51.652;7.852;2022-08-16T07:08:24;26.70;99.90
35373;DHT22;21476;51.652;7.852;2022-08-16T07:10:51;26.80;99.90
35373;DHT22;21476;51.652;7.852;2022-08-16T07:13:17;27.10;99.90
35373;DHT22;21476;51.652;7.852;2022-08-16T07:15:43;26.90;99.90
35373;DHT22;21476;51.652;7.852;2022-08-16T07:18:09;26.90;99.90
35373;DHT22;21476;51.652;7.852;2022-08-16T07:20:37;27.30;99.90
35373;DHT22;21476;51.652;7.852;2022-08-16T07:23:03;27.10;99.90
35373;DHT22;21476;51.652;7.852;2022-08-16T07:25:32;27.10;99.90
35373;DHT22;21476;51.652;7.852;2022-08-16T07:27:58;27.50;99.90
35373;DHT22;21476;51.652;7.852;2022-08-16T07:30:25;27.60;99.90
35373;DHT22;21476;51.652;7.852;2022-08-16T07:32:51;27.80;99.90
35373;DHT22;21476;51.652;7.852;2022-08-16T07:35:17;27.80;99.90
35373;DHT22;21476;51.652;7.852;2022-08-16T07:37:43;28.10;99.90
35373;DHT22;21476;51.652;7.852;2022-08-16T07:40:10;28.10;99.90
35373;DHT22;21476;51.652;7.852;2022-08-16T07:42:36;28.20;99.90
35373;DHT22;21476;51.652;7.852;2022-08-16T07:45:04;28.40;99.90
35373;DHT22;21476;51.652;7.852;2022-08-16T07:47:30;28.50;99.90
35373;DHT22;21476;51.652;7.852;2022-08-16T07:49:55;28.30;99.90
35373;DHT22;21476;51.652;7.852;2022-08-16T07:52:21;28.10;99.90
35373;DHT22;21476;51.652;7.852;2022-08-16T07:54:47;28.60;99.90
35373;DHT22;21476;51.652;7.852;2022-08-16T07:57:12;29.00;99.90
35373;DHT22;21476;51.652;7.852;2022-08-16T07:59:38;29.20;99.90
35373;DHT22;21476;51.652;7.852;2022-08-16T08:02:04;29.40;99.90
35373;DHT22;21476;51.652;7.852;2022-08-16T08:04:30;29.60;99.90
35373;DHT22;21476;51.652;7.852;2022-08-16T08:06:58;29.60;99.90
35373;DHT22;21476;51.652;7.852;2022-08-16T08:09:24;29.60;99.90
35373;DHT22;21476;51.652;7.852;2022-08-16T08:11:50;29.70;99.90
35373;DHT22;21476;51.652;7.852;2022-08-16T08:14:15;30.00;99.90
35373;DHT22;21476;51.652;7.852;2022-08-16T08:16:41;29.70;99.90
35373;DHT22;21476;51.652;7.852;2022-08-16T08:19:08;29.90;99.90
35373;DHT22;21476;51.652;7.852;2022-08-16T08:21:37;30.10;99.90
35373;DHT22;21476;51.652;7.852;2022-08-16T08:24:08;30.20;99.90
35373;DHT22;21476;51.652;7.852;2022-08-16T08:26:34;30.30;99.90
35373;DHT22;21476;51.652;7.852;2022-08-16T08:29:00;30.60;99.90
35373;DHT22;21476;51.652;7.852;2022-08-16T08:31:26;30.40;99.90
35373;DHT22;21476;51.652;7.852;2022-08-16T08:33:52;30.40;99.90
35373;DHT22;21476;51.652;7.852;2022-08-16T08:36:25;30.40;99.90
35373;DHT22;21476;51.652;7.852;2022-08-16T08:38:51;30.50;99.90
35373;DHT22;21476;51.652;7.852;2022-08-16T08:41:18;30.90;99.90
35373;DHT22;21476;51.652;7.852;2022-08-16T08:43:44;30.70;99.90
35373;DHT22;21476;51.652;7.852;2022-08-16T08:46:10;30.50;99.90
35373;DHT22;21476;51.652;7.852;2022-08-16T08:48:36;30.80;99.90
35373;DHT22;21476;51.652;7.852;2022-08-16T08:51:03;31.20;99.90
35373;DHT22;21476;51.652;7.852;2022-08-16T08:53:29;31.30;99.90
35373;DHT22;21476;51.652;7.852;2022-08-16T08:55:54;31.00;99.90
35373;DHT22;21476;51.652;7.852;2022-08-16T08:58:20;31.60;99.90
35373;DHT22;21476;51.652;7.852;2022-08-16T09:00:46;31.50;99.90
35373;DHT22;21476;51.652;7.852;2022-08-16T09:03:12;31.70;99.90
35373;DHT22;21476;51.652;7.852;2022-08-16T09:05:39;32.00;99.90
35373;DHT22;21476;51.652;7.852;2022-08-16T09:08:05;32.00;99.90
35373;DHT22;21476;51.652;7.852;2022-08-16T09:10:31;32.10;99.50
35373;DHT22;21476;51.652;7.852;2022-08-16T09:13:00;31.80;99.90
35373;DHT22;21476;51.652;7.852;2022-08-16T09:15:26;32.10;99.40
35373;DHT22;21476;51.652;7.852;2022-08-16T09:17:52;32.10;99.20
35373;DHT22;21476;51.652;7.852;2022-08-16T09:20:21;32.40;99.00
35373;DHT22;21476;51.652;7.852;2022-08-16T09:22:47;31.80;98.70
35373;DHT22;21476;51.652;7.852;2022-08-16T09:25:15;32.30;98.60
35373;DHT22;21476;51.652;7.852;2022-08-16T09:27:41;32.10;98.70
35373;DHT22;21476;51.652;7.852;2022-08-16T09:30:07;32.10;98.70
35373;DHT22;21476;51.652;7.852;2022-08-16T09:32:34;32.40;98.60
35373;DHT22;21476;51.652;7.852;2022-08-16T09:35:00;32.60;97.00
35373;DHT22;21476;51.652;7.852;2022-08-16T09:37:29;32.30;98.40
35373;DHT22;21476;51.652;7.852;2022-08-16T09:39:56;32.50;97.80
35373;DHT22;21476;51.652;7.852;2022-08-16T09:42:22;32.90;97.10
35373;DHT22;21476;51.652;7.852;2022-08-16T09:44:48;33.20;96.40
35373;DHT22;21476;51.652;7.852;2022-08-16T09:47:13;33.30;96.60
35373;DHT22;21476;51.652;7.852;2022-08-16T09:49:39;33.20;97.10
35373;DHT22;21476;51.652;7.852;2022-08-16T09:52:05;32.90;97.00
35373;DHT22;21476;51.652;7.852;2022-08-16T09:54:31;33.00;96.70
35373;DHT22;21476;51.652;7.852;2022-08-16T09:56:57;32.60;95.90
35373;DHT22;21476;51.652;7.852;2022-08-16T09:59:23;32.20;96.50
35373;DHT22;21476;51.652;7.852;2022-08-16T10:01:50;32.30;97.10
35373;DHT22;21476;51.652;7.852;2022-08-16T10:04:17;32.70;97.30
35373;DHT22;21476;51.652;7.852;2022-08-16T10:06:42;33.00;96.40
35373;DHT22;21476;51.652;7.852;2022-08-16T10:09:11;33.00;96.30
35373;DHT22;21476;51.652;7.852;2022-08-16T10:11:38;33.40;95.60
35373;DHT22;21476;51.652;7.852;2022-08-16T10:14:23;33.50;96.00
35373;DHT22;21476;51.652;7.852;2022-08-16T10:16:50;33.70;95.50
35373;DHT22;21476;51.652;7.852;2022-08-16T10:19:18;33.80;95.20
35373;DHT22;21476;51.652;7.852;2022-08-16T10:21:44;34.00;94.40
35373;DHT22;21476;51.652;7.852;2022-08-16T10:24:10;33.80;94.00
35373;DHT22;21476;51.652;7.852;2022-08-16T10:26:36;33.70;94.40
35373;DHT22;21476;51.652;7.852;2022-08-16T10:29:04;33.70;93.90
35373;DHT22;21476;51.652;7.852;2022-08-16T10:31:30;33.40;93.40
35373;DHT22;21476;51.652;7.852;2022-08-16T10:33:56;33.80;93.20
35373;DHT22;21476;51.652;7.852;2022-08-16T10:36:22;33.70;93.70
35373;DHT22;21476;51.652;7.852;2022-08-16T10:38:47;33.80;93.30
35373;DHT22;21476;51.652;7.852;2022-08-16T10:41:13;33.80;93.30
35373;DHT22;21476;51.652;7.852;2022-08-16T10:43:40;33.60;92.60
35373;DHT22;21476;51.652;7.852;2022-08-16T10:46:10;33.70;92.70
35373;DHT22;21476;51.652;7.852;2022-08-16T10:48:42;33.90;93.60
35373;DHT22;21476;51.652;7.852;2022-08-16T10:51:08;33.70;92.80
35373;DHT22;21476;51.652;7.852;2022-08-16T10:53:34;33.60;91.80
35373;DHT22;21476;51.652;7.852;2022-08-16T10:56:01;33.60;92.80
35373;DHT22;21476;51.652;7.852;2022-08-16T10:58:27;33.80;92.30
35373;DHT22;21476;51.652;7.852;2022-08-16T11:00:53;33.80;92.70
35373;DHT22;21476;51.652;7.852;2022-08-16T11:03:19;33.20;92.50
35373;DHT22;21476;51.652;7.852;2022-08-16T11:05:46;33.00;92.90
35373;DHT22;21476;51.652;7.852;2022-08-16T11:08:12;33.20;92.60
35373;DHT22;21476;51.652;7.852;2022-08-16T11:10:43;33.40;92.40
35373;DHT22;21476;51.652;7.852;2022-08-16T11:13:11;33.10;92.60
35373;DHT22;21476;51.652;7.852;2022-08-16T11:15:37;33.10;92.80
35373;DHT22;21476;51.652;7.852;2022-08-16T11:18:05;33.20;92.50
35373;DHT22;21476;51.652;7.852;2022-08-16T11:20:31;32.90;93.00
35373;DHT22;21476;51.652;7.852;2022-08-16T11:23:02;33.10;92.20
35373;DHT22;21476;51.652;7.852;2022-08-16T11:25:30;33.40;91.70
35373;DHT22;21476;51.652;7.852;2022-08-16T11:27:59;33.00;91.50
35373;DHT22;21476;51.652;7.852;2022-08-16T11:30:29;32.80;91.80
35373;DHT22;21476;51.652;7.852;2022-08-16T11:32:55;32.70;92.10
35373;DHT22;21476;51.652;7.852;2022-08-16T11:35:31;33.20;91.10
35373;DHT22;21476;51.652;7.852;2022-08-16T11:38:04;33.40;90.30
35373;DHT22;21476;51.652;7.852;2022-08-16T11:43:12;33.50;90.60
35373;DHT22;21476;51.652;7.852;2022-08-16T11:45:38;33.60;90.20
35373;DHT22;21476;51.652;7.852;2022-08-16T11:48:05;33.70;90.30
35373;DHT22;21476;51.652;7.852;2022-08-16T11:50:32;33.30;88.60
35373;DHT22;21476;51.652;7.852;2022-08-16T11:53:03;32.80;89.90
35373;DHT22;21476;51.652;7.852;2022-08-16T11:55:30;32.90;88.30
35373;DHT22;21476;51.652;7.852;2022-08-16T11:57:56;33.00;87.90
35373;DHT22;21476;51.652;7.852;2022-08-16T12:00:21;33.40;89.10
35373;DHT22;21476;51.652;7.852;2022-08-16T12:02:47;33.70;87.20
35373;DHT22;21476;51.652;7.852;2022-08-16T12:05:14;33.90;84.40
35373;DHT22;21476;51.652;7.852;2022-08-16T12:07:40;33.90;84.30
35373;DHT22;21476;51.652;7.852;2022-08-16T12:10:10;34.10;85.40
35373;DHT22;21476;51.652;7.852;2022-08-16T12:12:36;34.20;84.00
35373;DHT22;21476;51.652;7.852;2022-08-16T12:15:02;34.50;84.00
35373;DHT22;21476;51.652;7.852;2022-08-16T12:17:30;34.60;82.10
35373;DHT22;21476;51.652;7.852;2022-08-16T12:19:56;34.20;82.10
35373;DHT22;21476;51.652;7.852;2022-08-16T12:22:22;33.60;83.10
35373;DHT22;21476;51.652;7.852;2022-08-16T12:24:49;33.20;83.40
35373;DHT22;21476;51.652;7.852;2022-08-16T12:27:16;33.20;85.50
35373;DHT22;21476;51.652;7.852;2022-08-16T12:29:42;33.30;84.90
35373;DHT22;21476;51.652;7.852;2022-08-16T12:32:08;33.20;83.10
35373;DHT22;21476;51.652;7.852;2022-08-16T12:34:33;33.30;84.00
35373;DHT22;21476;51.652;7.852;2022-08-16T12:37:01;33.60;83.30
35373;DHT22;21476;51.652;7.852;2022-08-16T12:39:28;33.70;83.20
35373;DHT22;21476;51.652;7.852;2022-08-16T12:41:53;33.80;82.20
35373;DHT22;21476;51.652;7.852;2022-08-16T12:44:20;33.70;80.60
35373;DHT22;21476;51.652;7.852;2022-08-16T12:46:46;33.90;79.00
35373;DHT22;21476;51.652;7.852;2022-08-16T12:49:32;33.60;79.80
35373;DHT22;21476;51.652;7.852;2022-08-16T12:51:58;33.60;81.10
35373;DHT22;21476;51.652;7.852;2022-08-16T12:54:23;33.40;81.40
35373;DHT22;21476;51.652;7.852;2022-08-16T12:56:49;33.40;80.10
35373;DHT22;21476;51.652;7.852;2022-08-16T12:59:15;33.40;80.30
35373;DHT22;21476;51.652;7.852;2022-08-16T13:01:41;33.40;80.50
35373;DHT22;21476;51.652;7.852;2022-08-16T13:04:07;33.40;81.10
35373;DHT22;21476;51.652;7.852;2022-08-16T13:06:34;33.20;81.30
35373;DHT22;21476;51.652;7.852;2022-08-16T13:09:03;33.40;82.20
35373;DHT22;21476;51.652;7.852;2022-08-16T13:11:44;32.90;81.10
35373;DHT22;21476;51.652;7.852;2022-08-16T13:14:14;32.40;80.60
35373;DHT22;21476;51.652;7.852;2022-08-16T13:16:40;32.30;83.80
35373;DHT22;21476;51.652;7.852;2022-08-16T13:19:06;32.40;83.30
35373;DHT22;21476;51.652;7.852;2022-08-16T13:21:32;32.40;82.00
35373;DHT22;21476;51.652;7.852;2022-08-16T13:23:58;32.40;81.60
35373;DHT22;21476;51.652;7.852;2022-08-16T13:26:24;32.30;82.00
35373;DHT22;21476;51.652;7.852;2022-08-16T13:28:50;32.40;81.80
35373;DHT22;21476;51.652;7.852;2022-08-16T13:31:17;32.40;80.30
35373;DHT22;21476;51.652;7.852;2022-08-16T13:33:43;32.40;81.70
35373;DHT22;21476;51.652;7.852;2022-08-16T13:36:10;32.40;81.80
35373;DHT22;21476;51.652;7.852;2022-08-16T13:38:36;32.40;82.10
35373;DHT22;21476;51.652;7.852;2022-08-16T13:41:07;32.40;82.00
35373;DHT22;21476;51.652;7.852;2022-08-16T13:43:33;32.30;82.70
35373;DHT22;21476;51.652;7.852;2022-08-16T13:45:59;32.30;81.90
35373;DHT22;21476;51.652;7.852;2022-08-16T13:48:28;32.30;82.40
35373;DHT22;21476;51.652;7.852;2022-08-16T13:50:55;32.20;81.20
35373;DHT22;21476;51.652;7.852;2022-08-16T13:53:22;32.20;81.90
35373;DHT22;21476;51.652;7.852;2022-08-16T13:55:48;32.20;82.10
35373;DHT22;21476;51.652;7.852;2022-08-16T13:58:14;32.00;81.80
35373;DHT22;21476;51.652;7.852;2022-08-16T14:00:39;31.90;83.00
35373;DHT22;21476;51.652;7.852;2022-08-16T14:03:07;31.70;83.50
35373;DHT22;21476;51.652;7.852;2022-08-16T14:05:33;31.70;84.30
35373;DHT22;21476;51.652;7.852;2022-08-16T14:07:58;31.70;84.60
35373;DHT22;21476;51.652;7.852;2022-08-16T14:10:24;31.70;83.00
35373;DHT22;21476;51.652;7.852;2022-08-16T14:12:50;31.60;84.30
35373;DHT22;21476;51.652;7.852;2022-08-16T14:15:16;31.50;81.60
35373;DHT22;21476;51.652;7.852;2022-08-16T14:17:43;31.30;83.00
35373;DHT22;21476;51.652;7.852;2022-08-16T14:20:09;31.10;83.00
35373;DHT22;21476;51.652;7.852;2022-08-16T14:22:37;31.10;83.30
35373;DHT22;21476;51.652;7.852;2022-08-16T14:25:06;30.90;83.40
35373;DHT22;21476;51.652;7.852;2022-08-16T14:27:33;30.90;83.60
35373;DHT22;21476;51.652;7.852;2022-08-16T14:29:59;31.00;84.30
35373;DHT22;21476;51.652;7.852;2022-08-16T14:32:27;31.10;84.80
35373;DHT22;21476;51.652;7.852;2022-08-16T14:34:54;31.10;84.30
35373;DHT22;21476;51.652;7.852;2022-08-16T14:37:21;31.10;83.10
35373;DHT22;21476;51.652;7.852;2022-08-16T14:39:46;31.20;83.10
35373;DHT22;21476;51.652;7.852;2022-08-16T14:42:19;31.20;81.60
35373;DHT22;21476;51.652;7.852;2022-08-16T14:44:46;31.10;82.60
35373;DHT22;21476;51.652;7.852;2022-08-16T14:47:12;31.10;82.50
35373;DHT22;21476;51.652;7.852;2022-08-16T14:49:38;31.10;82.60
35373;DHT22;21476;51.652;7.852;2022-08-16T14:52:09;31.10;82.70
35373;DHT22;21476;51.652;7.852;2022-08-16T14:54:35;30.90;83.00
35373;DHT22;21476;51.652;7.852;2022-08-16T14:57:01;30.90;82.50
35373;DHT22;21476;51.652;7.852;2022-08-16T14:59:27;30.80;81.90
35373;DHT22;21476;51.652;7.852;2022-08-16T15:01:54;30.80;82.70
35373;DHT22;21476;51.652;7.852;2022-08-16T15:04:20;30.70;84.20
35373;DHT22;21476;51.652;7.852;2022-08-16T15:06:46;30.70;83.50
35373;DHT22;21476;51.652;7.852;2022-08-16T15:09:12;30.80;82.40
35373;DHT22;21476;51.652;7.852;2022-08-16T15:11:38;30.60;82.90
35373;DHT22;21476;51.652;7.852;2022-08-16T15:14:04;30.50;84.50
35373;DHT22;21476;51.652;7.852;2022-08-16T15:16:30;30.50;82.90
35373;DHT22;21476;51.652;7.852;2022-08-16T15:18:56;30.50;83.70
35373;DHT22;21476;51.652;7.852;2022-08-16T15:21:26;30.50;84.50
35373;DHT22;21476;51.652;7.852;2022-08-16T15:23:53;30.40;84.50
35373;DHT22;21476;51.652;7.852;2022-08-16T15:26:19;30.50;84.70
35373;DHT22;21476;51.652;7.852;2022-08-16T15:28:45;30.60;84.60
35373;DHT22;21476;51.652;7.852;2022-08-16T15:31:11;30.50;84.40
35373;DHT22;21476;51.652;7.852;2022-08-16T15:33:42;30.50;84.80